EGPF

Glasgow International Airport

Glasgow, United Kingdom
TAF EGPF 231101Z 2312/2412 23009KT 9999 FEW020 SCT040 TEMPO 2312/2320 7000 -RA BKN008 PROB40 TEMPO 2312/2318 4000 RA PROB30 2320/2406 6000 BKN004
Issued Valid From Valid To
Jul-23 @ 11:01 UTC
(3 hours ago)
Jul-23 @ 12:00 UTC
(2 hours ago)
Jul-24 @ 12:00 UTC
(in 22 hours)
Jul-23 @ 12:00 to Jul-24 @ 12:00
TAF EGPF 231101Z 2312/2412 23009KT 9999 FEW020 SCT040
Wind Visibility Clouds
230° at 9 knots 10,000+ meters
  • Few at 2,000' AGL
  • Scattered at 4,000' AGL
Temporary  (Probability 40%) Jul-23 @ 12:00 to Jul-23 @ 18:00
PROB40 TEMPO 2312/2318 4000 RA
Visibility Conditions
4,007 meters
  • Rain
Temporary Jul-23 @ 12:00 to Jul-23 @ 20:00
TEMPO 2312/2320 7000 -RA BKN008
Visibility Clouds Conditions
7,001 meters
  • Broken at 800' AGL
  • Light Rain
Probable  (Probability 30%) Jul-23 @ 20:00 to Jul-24 @ 06:00
PROB30 2320/2406 6000 BKN004
Visibility Clouds
6,003 meters
  • Broken at 400' AGL
TAF EGPF 231101Z 2312/2412 23009KT 9999 FEW020 SCT040 TEMPO 2312/2320 7000 -RA BKN008 PROB40 TEMPO 2312/2318 4000 RA PROB30 2320/2406 6000 BKN004
Issued Jul-23 @ 11:01 UTC
(3 hours ago)
Valid From Jul-23 @ 12:00 UTC
(2 hours ago)
Valid To Jul-24 @ 12:00 UTC
(in 22 hours)
Jul-23 @ 12:00 - Jul-24 @ 12:00
Wind Visibility
230° at 9 knots 10,000+ meters
Clouds
  • Few at 2,000' AGL
  • Scattered at 4,000' AGL
Probability 40% Temporary Jul-23 @ 12:00 - Jul-23 @ 18:00
Conditions
  • Rain
Temporary Jul-23 @ 12:00 - Jul-23 @ 20:00
Clouds
  • Broken at 800' AGL
Conditions
  • Light Rain
Probability 30% Probable Jul-23 @ 20:00 - Jul-24 @ 06:00
Clouds
  • Broken at 400' AGL